Time;durP1;ratioP1;P1;durP2;ratioP2;P2;SDS_P1;SDS_P2;PMS_P1;PMS_P2;Temp;Humidity;BMP_temperature;BMP_pressure;BME280_temperature;BME280_humidity;BME280_pressure;Samples;Min_cycle;Max_cycle;Signal;HPM_P1;HPM_P2
2023/01/13 00:00:39;;;;;;;4.03;1.63;;;;;;;8.27;100.00;100348.41;5010390;28;20022;-85
2023/01/13 00:03:05;;;;;;;8.63;3.08;;;;;;;8.21;100.00;100348.38;5010445;28;20063;-85
2023/01/13 00:05:30;;;;;;;9.48;1.90;;;;;;;8.24;100.00;100348.00;5010453;28;20040;-85
2023/01/13 00:07:55;;;;;;;8.68;2.65;;;;;;;8.18;100.00;100340.81;5008887;28;20040;-85
2023/01/13 00:10:21;;;;;;;9.48;1.65;;;;;;;8.21;100.00;100349.19;5010416;28;20029;-85
2023/01/13 00:12:46;;;;;;;10.73;2.55;;;;;;;8.22;100.00;100350.03;5008510;28;20148;-84
2023/01/13 00:15:12;;;;;;;12.30;2.53;;;;;;;8.21;100.00;100346.53;5008815;28;20119;-84
2023/01/13 00:17:37;;;;;;;14.30;1.80;;;;;;;8.17;100.00;100344.47;5008999;28;20556;-85
2023/01/13 00:20:03;;;;;;;10.25;2.45;;;;;;;8.03;100.00;100325.78;5008977;28;20608;-84
2023/01/13 00:22:32;;;;;;;7.68;2.00;;;;;;;8.03;100.00;100332.94;5008745;28;20436;-85
2023/01/13 00:25:00;;;;;;;12.32;1.90;;;;;;;7.97;100.00;100328.41;5009727;28;20032;-85
2023/01/13 00:27:26;;;;;;;10.25;2.38;;;;;;;7.86;100.00;100298.69;5009726;28;20038;-84
2023/01/13 00:29:51;;;;;;;10.65;2.13;;;;;;;7.88;100.00;100303.78;4992381;28;20034;-84
2023/01/13 00:32:16;;;;;;;14.65;2.67;;;;;;;7.86;100.00;100306.66;5009896;28;20119;-85
2023/01/13 00:34:42;;;;;;;13.15;3.08;;;;;;;7.80;100.00;100311.91;5008563;28;20371;-85
2023/01/13 00:37:11;;;;;;;9.10;2.42;;;;;;;7.79;100.00;100312.94;4992041;28;20045;-85
2023/01/13 00:39:37;;;;;;;6.60;1.88;;;;;;;7.68;100.00;100288.53;4992622;28;20083;-84
2023/01/13 00:44:46;;;;;;;12.30;2.17;;;;;;;7.67;100.00;100292.19;5009782;28;20040;-85
2023/01/13 00:47:12;;;;;;;8.90;3.15;;;;;;;7.61;100.00;100292.97;5009759;28;20499;-84
2023/01/13 00:49:37;;;;;;;18.45;3.42;;;;;;;7.54;100.00;100288.59;4992062;28;20038;-84
2023/01/13 00:52:02;;;;;;;7.78;1.63;;;;;;;7.58;100.00;100292.53;5008320;28;20075;-84
2023/01/13 00:54:28;;;;;;;10.02;1.55;;;;;;;7.51;100.00;100302.25;5008128;28;20132;-84
2023/01/13 00:56:53;;;;;;;13.00;2.75;;;;;;;7.47;100.00;100284.06;5009635;28;20034;-84
2023/01/13 00:59:18;;;;;;;9.73;2.00;;;;;;;7.42;100.00;100290.97;5008464;28;20481;-84
2023/01/13 01:01:44;;;;;;;13.30;2.95;;;;;;;7.42;100.00;100296.28;5008314;28;20385;-84
2023/01/13 01:04:10;;;;;;;9.50;2.08;;;;;;;7.52;100.00;100314.50;4991993;28;20129;-85
2023/01/13 01:06:35;;;;;;;9.18;2.92;;;;;;;7.46;100.00;100310.78;5009572;28;20033;-84
2023/01/13 01:09:01;;;;;;;10.93;2.40;;;;;;;7.46;100.00;100318.75;4975739;28;20034;-84
2023/01/13 01:11:29;;;;;;;14.05;2.75;;;;;;;7.42;100.00;100320.97;4991837;28;20079;-84
2023/01/13 01:13:56;;;;;;;12.20;1.83;;;;;;;7.42;100.00;100325.44;5022678;28;20060;-84
2023/01/13 01:16:23;;;;;;;8.55;2.03;;;;;;;7.35;100.00;100304.16;5011473;28;20025;-84
2023/01/13 01:18:51;;;;;;;12.73;4.03;;;;;;;7.46;100.00;100324.06;5029204;28;20444;-84
2023/01/13 01:21:17;;;;;;;16.60;3.10;;;;;;;7.49;100.00;100323.66;5011330;28;20494;-84
2023/01/13 01:23:44;;;;;;;12.48;2.55;;;;;;;7.50;100.00;100327.16;5028950;28;20060;-84
2023/01/13 01:26:15;;;;;;;17.02;3.08;;;;;;;7.50;100.00;100324.50;5029039;28;20026;-84
2023/01/13 01:28:41;;;;;;;;;;;;;;;7.57;100.00;100328.88;5011738;28;20037;-84
2023/01/13 01:31:18;;;;;;;18.30;4.55;;;;;;;7.56;100.00;100340.47;5029203;28;19913;-84
2023/01/13 01:33:45;;;;;;;13.05;3.33;;;;;;;7.53;100.00;100324.13;5029004;28;20091;-84
2023/01/13 01:36:12;;;;;;;17.58;5.47;;;;;;;7.51;100.00;100324.31;4995104;28;21235;-84
2023/01/13 01:38:37;;;;;;;8.15;2.65;;;;;;;7.52;100.00;100323.31;5029106;28;20400;-84
2023/01/13 01:41:03;;;;;;;16.55;3.80;;;;;;;7.53;100.00;100322.28;5028834;28;20041;-84
2023/01/13 01:43:58;;;;;;;12.65;3.28;;;;;;;7.54;100.00;100323.09;5028942;28;20041;-84
2023/01/13 01:46:33;;;;;;;11.70;2.08;;;;;;;7.46;100.00;100316.91;5028520;28;20033;-83
2023/01/13 01:49:11;;;;;;;12.60;2.13;;;;;;;7.51;100.00;100324.31;5012595;28;20464;-84
2023/01/13 01:51:44;;;;;;;10.55;1.95;;;;;;;7.42;100.00;100323.63;5011154;28;20067;-83
2023/01/13 01:54:16;;;;;;;11.13;3.05;;;;;;;7.37;100.00;100318.06;5028895;28;20053;-84
2023/01/13 01:56:44;;;;;;;18.92;3.60;;;;;;;7.34;100.00;100310.47;5029037;28;20021;-83
2023/01/13 01:59:10;;;;;;;11.50;2.45;;;;;;;7.35;100.00;100320.06;5032543;28;20400;-83
2023/01/13 02:01:37;;;;;;;11.20;3.45;;;;;;;7.31;100.00;100305.56;5032313;28;20116;-83
2023/01/13 02:04:10;;;;;;;25.52;4.20;;;;;;;7.26;100.00;100305.31;5032148;28;20481;-83
2023/01/13 02:06:36;;;;;;;16.58;4.43;;;;;;;7.32;100.00;100311.69;5014404;28;20039;-83
2023/01/13 02:09:02;;;;;;;13.35;2.33;;;;;;;7.25;100.00;100295.69;5014468;28;20030;-83
2023/01/13 02:14:18;;;;;;;15.07;2.22;;;;;;;7.24;100.00;100305.47;5031743;28;20663;-83
2023/01/13 02:17:21;;;;;;;12.25;2.75;;;;;;;7.21;100.00;100310.34;5014270;28;20432;-83
2023/01/13 02:20:22;;;;;;;16.02;3.50;;;;;;;7.11;100.00;100289.44;5011085;28;20125;-83
2023/01/13 02:26:36;;;;;;;26.17;5.65;;;;;;;7.11;100.00;100299.22;5023103;28;20102;-83
2023/01/13 02:32:18;;;;;;;38.45;7.45;;;;;;;7.07;100.00;100311.19;4970572;28;20034;-83
2023/01/13 02:35:02;;;;;;;19.60;3.88;;;;;;;7.02;100.00;100309.09;4954285;28;20105;-83
2023/01/13 02:37:30;;;;;;;16.55;3.05;;;;;;;7.03;100.00;100324.00;4994392;28;20373;-83
2023/01/13 02:40:08;;;;;;;22.25;4.05;;;;;;;7.01;100.00;100316.22;5031668;28;20040;-83
2023/01/13 02:45:38;;;;;;;16.38;4.15;;;;;;;6.94;100.00;100312.72;5031797;28;20044;-83
2023/01/13 02:48:07;;;;;;;16.77;5.50;;;;;;;6.89;100.00;100307.13;5013756;28;20037;-83
2023/01/13 02:50:46;;;;;;;19.90;3.03;;;;;;;6.80;100.00;100290.50;5031541;28;20420;-83
2023/01/13 02:53:18;;;;;;;17.35;3.22;;;;;;;6.88;100.00;100294.88;5013860;28;20090;-83
2023/01/13 02:55:47;;;;;;;26.15;4.70;;;;;;;6.94;100.00;100296.81;5031441;28;20036;-83
2023/01/13 02:58:16;;;;;;;11.88;2.67;;;;;;;6.96;100.00;100300.06;5031331;28;20029;-83
2023/01/13 03:00:43;;;;;;;14.40;3.55;;;;;;;7.04;100.00;100307.09;5031274;28;20473;-83
2023/01/13 03:03:09;;;;;;;16.25;3.13;;;;;;;7.07;100.00;100292.63;5031186;28;20034;-83
2023/01/13 03:05:35;;;;;;;17.00;3.50;;;;;;;7.11;100.00;100291.25;4996727;28;20036;-83
2023/01/13 03:08:23;;;;;;;29.40;4.22;;;;;;;7.15;100.00;100288.06;5030825;28;20030;-83
2023/01/13 03:10:58;;;;;;;14.55;2.90;;;;;;;7.17;100.00;100287.84;5020189;28;20076;-83
2023/01/13 03:13:54;;;;;;;21.92;3.58;;;;;;;7.19;100.00;100291.97;5030625;28;20057;-82
2023/01/13 03:17:03;;;;;;;20.00;2.25;;;;;;;7.29;100.00;100280.22;5013124;28;20037;-83
2023/01/13 03:19:41;;;;;;;14.93;2.55;;;;;;;7.30;100.00;100276.56;4931327;29;20515;-83
2023/01/13 03:22:30;;;;;;;15.90;3.38;;;;;;;7.31;100.00;100279.03;5024065;28;20053;-83
2023/01/13 03:25:22;;;;;;;13.90;3.17;;;;;;;7.34;100.00;100262.72;5030329;28;20210;-83
2023/01/13 03:27:56;;;;;;;12.38;2.20;;;;;;;7.35;100.00;100258.25;5012866;28;20033;-83
2023/01/13 03:30:25;;;;;;;25.55;5.72;;;;;;;7.38;100.00;100266.63;5012839;28;20017;-83
2023/01/13 03:33:11;;;;;;;10.38;2.70;;;;;;;7.41;100.00;100253.00;5030576;28;20451;-83
2023/01/13 03:35:42;;;;;;;10.30;2.53;;;;;;;7.43;100.00;100245.66;5030515;28;20030;-82
2023/01/13 03:38:32;;;;;;;15.77;3.88;;;;;;;7.50;100.00;100252.88;5030538;28;20393;-82
2023/01/13 03:41:06;;;;;;;12.98;2.58;;;;;;;7.51;100.00;100255.31;5015697;28;20060;-83
2023/01/13 03:46:54;;;;;;;16.80;2.55;;;;;;;7.52;100.00;100249.00;5030463;28;20079;-82
2023/01/13 03:49:24;;;;;;;12.75;2.30;;;;;;;7.61;100.00;100252.34;4982340;28;20037;-83
2023/01/13 03:51:55;;;;;;;11.23;1.80;;;;;;;7.57;100.00;100237.81;5030368;28;20057;-83
2023/01/13 03:54:24;;;;;;;11.48;2.50;;;;;;;7.64;100.00;100244.81;5030151;28;20027;-83
2023/01/13 03:56:55;;;;;;;5.28;1.70;;;;;;;7.59;100.00;100222.50;5030290;28;20033;-83
2023/01/13 03:59:25;;;;;;;8.43;1.80;;;;;;;7.66;100.00;100266.69;5030268;28;20373;-83
2023/01/13 04:02:08;;;;;;;6.32;1.58;;;;;;;7.67;100.00;100256.88;5029994;28;20370;-83
2023/01/13 04:04:45;;;;;;;3.15;1.10;;;;;;;7.66;100.00;100253.41;5012263;28;20031;-83
2023/01/13 04:07:31;;;;;;;7.28;1.73;;;;;;;7.66;100.00;100241.97;5030015;28;20032;-82
2023/01/13 04:10:01;;;;;;;4.43;0.80;;;;;;;7.59;100.00;100246.41;5029937;28;20465;-83
2023/01/13 04:12:59;;;;;;;4.07;1.50;;;;;;;7.63;99.51;100263.59;5011933;28;20033;-82
2023/01/13 04:15:22;;;;;;;2.30;1.20;;;;;;;7.54;100.00;100270.84;5029355;28;20049;-83
2023/01/13 04:17:49;;;;;;;1.98;1.10;;;;;;;7.57;99.51;100278.44;5029838;28;20057;-83
2023/01/13 04:20:15;;;;;;;8.13;1.42;;;;;;;7.59;99.75;100284.38;5029320;28;20068;-83
2023/01/13 04:22:40;;;;;;;9.02;0.90;;;;;;;7.55;100.00;100290.28;5029700;28;20116;-82
2023/01/13 04:25:06;;;;;;;2.47;1.23;;;;;;;7.45;100.00;100285.28;5029532;28;20108;-82
2023/01/13 04:27:32;;;;;;;6.25;1.02;;;;;;;7.43;100.00;100284.63;5011747;28;20033;-83
2023/01/13 04:29:57;;;;;;;9.48;1.42;;;;;;;7.40;100.00;100290.31;5011836;28;20025;-83
2023/01/13 04:32:22;;;;;;;2.92;1.13;;;;;;;7.36;100.00;100295.19;5011766;28;20087;-82
2023/01/13 04:34:48;;;;;;;8.38;2.17;;;;;;;7.29;100.00;100290.84;5011922;28;20461;-82
2023/01/13 04:37:13;;;;;;;5.97;1.90;;;;;;;7.31;100.00;100296.75;4979202;28;20041;-82
2023/01/13 04:39:38;;;;;;;2.20;0.68;;;;;;;7.29;100.00;100304.09;5011739;28;20029;-82
2023/01/13 04:42:04;;;;;;;5.97;1.55;;;;;;;7.23;100.00;100287.94;5029396;28;20033;-83
2023/01/13 04:44:33;;;;;;;2.75;1.40;;;;;;;7.29;100.00;100296.97;4995423;28;20047;-82
2023/01/13 04:47:00;;;;;;;5.05;2.10;;;;;;;7.30;100.00;100295.13;5011719;28;20037;-82
2023/01/13 04:49:26;;;;;;;5.40;1.45;;;;;;;7.30;100.00;100295.94;5029340;28;20038;-82
2023/01/13 04:51:51;;;;;;;4.63;1.85;;;;;;;7.27;100.00;100293.66;5029404;28;20483;-82
2023/01/13 04:54:16;;;;;;;10.10;2.47;;;;;;;7.28;100.00;100292.66;4979074;28;20433;-82
2023/01/13 04:56:42;;;;;;;8.25;1.73;;;;;;;7.28;100.00;100292.66;5011743;28;20044;-82
2023/01/13 04:59:12;;;;;;;7.38;1.50;;;;;;;7.16;100.00;100272.97;5011601;28;20107;-82
2023/01/13 05:01:38;;;;;;;11.40;2.60;;;;;;;7.12;100.00;100275.16;5029286;28;20076;-82
2023/01/13 05:04:05;;;;;;;2.72;0.95;;;;;;;7.00;100.00;100279.31;5011313;28;20423;-82
2023/01/13 05:06:30;;;;;;;10.07;1.73;;;;;;;6.97;100.00;100274.41;5011694;28;20040;-82
2023/01/13 05:08:56;;;;;;;12.55;2.30;;;;;;;6.89;100.00;100279.78;5011535;28;20467;-83
2023/01/13 05:17:00;;;;;;;9.00;2.40;;;;;;;6.83;100.00;100260.16;5029406;28;20052;-83
2023/01/13 05:19:31;;;;;;;13.80;3.63;;;;;;;6.79;100.00;100259.72;5029189;28;20449;-82
2023/01/13 05:27:33;;;;;;;6.90;1.98;;;;;;;6.82;100.00;100282.38;5014230;28;19974;-82
2023/01/13 05:29:59;;;;;;;9.98;1.85;;;;;;;6.75;100.00;100278.81;5029128;28;20034;-83
2023/01/13 05:32:26;;;;;;;9.25;3.63;;;;;;;6.76;100.00;100281.28;5030448;28;20044;-83
2023/01/13 05:34:52;;;;;;;9.60;1.50;;;;;;;6.74;100.00;100279.84;5015496;28;20112;-82
2023/01/13 05:37:18;;;;;;;6.85;1.95;;;;;;;6.75;100.00;100278.81;5015126;28;20057;-82
2023/01/13 05:45:11;;;;;;;14.65;2.20;;;;;;;6.78;100.00;100297.00;5032822;28;20044;-82
2023/01/13 05:47:37;;;;;;;11.48;2.53;;;;;;;6.80;100.00;100289.69;5032559;28;20441;-82
2023/01/13 05:50:03;;;;;;;4.68;1.63;;;;;;;6.79;100.00;100291.53;5032479;28;20033;-82
2023/01/13 05:52:28;;;;;;;18.23;4.47;;;;;;;6.80;100.00;100302.94;5032467;28;20071;-82
2023/01/13 05:54:54;;;;;;;9.85;3.05;;;;;;;6.84;100.00;100313.97;5014937;28;20091;-82
2023/01/13 05:57:19;;;;;;;7.88;2.95;;;;;;;6.78;100.00;100311.06;5014650;28;20035;-83
2023/01/13 05:59:44;;;;;;;10.15;2.65;;;;;;;6.76;100.00;100326.34;5032389;28;20033;-83
2023/01/13 06:02:10;;;;;;;4.72;1.70;;;;;;;6.75;100.00;100318.56;5032365;28;20033;-82
2023/01/13 06:04:35;;;;;;;9.55;2.03;;;;;;;6.77;100.00;100321.88;4998012;28;20140;-82
2023/01/13 06:07:00;;;;;;;18.25;2.63;;;;;;;6.72;100.00;100322.41;5032222;28;20033;-82
2023/01/13 06:09:26;;;;;;;15.23;3.17;;;;;;;6.72;100.00;100326.91;5032170;28;20084;-82
2023/01/13 06:11:51;;;;;;;10.18;3.17;;;;;;;6.65;100.00;100318.84;5032106;28;20088;-82
2023/01/13 06:14:16;;;;;;;13.60;2.90;;;;;;;6.66;100.00;100322.34;5014460;28;20064;-82
2023/01/13 06:16:44;;;;;;;6.88;1.80;;;;;;;6.69;100.00;100327.28;5032169;28;20112;-82
2023/01/13 06:19:11;;;;;;;19.67;5.03;;;;;;;6.64;100.00;100333.09;5032004;28;20538;-82
2023/01/13 06:21:38;;;;;;;17.90;2.85;;;;;;;6.63;100.00;100328.81;5031877;28;20033;-83
2023/01/13 06:24:04;;;;;;;9.38;1.42;;;;;;;6.53;100.00;100320.34;5014084;28;20056;-82
2023/01/13 06:26:35;;;;;;;8.30;2.60;;;;;;;6.50;100.00;100321.53;5014231;28;20041;-82
2023/01/13 06:29:00;;;;;;;8.32;2.15;;;;;;;6.53;100.00;100323.81;5031674;28;20025;-82
2023/01/13 06:31:27;;;;;;;9.85;1.35;;;;;;;6.51;100.00;100309.09;5013970;28;20048;-82
2023/01/13 06:34:00;;;;;;;10.15;2.08;;;;;;;6.52;100.00;100321.31;5014232;28;20025;-82
2023/01/13 06:36:33;;;;;;;7.43;2.15;;;;;;;6.47;100.00;100321.03;5031691;28;20037;-82
2023/01/13 06:39:00;;;;;;;15.68;2.40;;;;;;;6.50;100.00;100323.34;5031627;28;20036;-83
2023/01/13 06:44:12;;;;;;;9.38;2.67;;;;;;;6.45;100.00;100336.31;5031120;28;20048;-83
2023/01/13 06:46:37;;;;;;;9.95;2.30;;;;;;;6.43;100.00;100347.09;4997142;28;20037;-83
2023/01/13 06:49:03;;;;;;;13.05;2.33;;;;;;;6.36;100.00;100341.69;5013725;28;20033;-82
2023/01/13 06:51:28;;;;;;;11.88;3.08;;;;;;;6.41;100.00;100348.28;4997165;28;20060;-83
2023/01/13 06:53:54;;;;;;;11.70;2.08;;;;;;;6.38;100.00;100338.03;5013647;28;20128;-82
2023/01/13 06:56:19;;;;;;;6.95;2.53;;;;;;;6.34;100.00;100329.63;4997206;28;20029;-82
2023/01/13 06:58:44;;;;;;;13.18;2.08;;;;;;;6.37;100.00;100337.22;5031206;28;20064;-82
2023/01/13 07:01:09;;;;;;;9.77;1.90;;;;;;;6.35;100.00;100326.00;5013354;28;20085;-83
2023/01/13 07:03:35;;;;;;;10.65;1.55;;;;;;;6.34;100.00;100319.03;5013559;28;20088;-82
2023/01/13 07:06:01;;;;;;;7.85;2.45;;;;;;;6.33;100.00;100335.94;5013517;28;20079;-82
2023/01/13 07:08:26;;;;;;;17.58;2.80;;;;;;;6.40;100.00;100338.69;5013279;28;20120;-82
2023/01/13 07:10:51;;;;;;;7.90;3.47;;;;;;;6.44;100.00;100342.59;4996915;28;20021;-82
2023/01/13 07:16:04;;;;;;;6.38;2.47;;;;;;;6.47;100.00;100345.72;5031238;28;20060;-82
2023/01/13 07:18:31;;;;;;;6.35;1.77;;;;;;;6.49;100.00;100335.75;5013096;28;20021;-83
2023/01/13 07:20:59;;;;;;;6.88;2.22;;;;;;;6.55;100.00;100344.81;5030488;28;20033;-82
2023/01/13 07:23:27;;;;;;;9.10;3.05;;;;;;;6.58;100.00;100337.31;5030954;28;20033;-83
2023/01/13 07:25:57;;;;;;;17.73;2.90;;;;;;;6.59;100.00;100344.25;5030802;28;20064;-83
2023/01/13 07:28:23;;;;;;;16.98;3.90;;;;;;;6.59;100.00;100343.44;5012886;28;20022;-82
2023/01/13 07:30:48;;;;;;;10.10;2.55;;;;;;;6.52;100.00;100334.56;5030591;28;20033;-82
2023/01/13 07:33:14;;;;;;;5.90;2.10;;;;;;;6.58;100.00;100347.09;4996430;28;20040;-82
2023/01/13 07:35:40;;;;;;;5.85;2.30;;;;;;;6.54;100.00;100357.22;4996457;28;20060;-82
2023/01/13 07:38:07;;;;;;;9.02;2.97;;;;;;;6.57;100.00;100353.38;5012854;28;20037;-81
2023/01/13 07:40:32;;;;;;;8.68;3.10;;;;;;;6.56;100.00;100355.22;5030374;28;20035;-81
2023/01/13 07:45:41;;;;;;;11.50;2.33;;;;;;;6.58;100.00;100371.75;5030648;28;20051;-81
2023/01/13 07:48:06;;;;;;;11.30;2.20;;;;;;;6.55;100.00;100366.03;5030243;28;20037;-81
2023/01/13 07:50:33;;;;;;;7.00;1.90;;;;;;;6.55;100.00;100363.38;5012766;28;20107;-83
2023/01/13 07:52:58;;;;;;;16.65;3.30;;;;;;;6.47;100.00;100366.06;5030039;28;20072;-82
2023/01/13 07:55:24;;;;;;;4.50;1.40;;;;;;;6.55;100.00;100371.31;5029335;28;20040;-81
2023/01/13 07:57:49;;;;;;;17.55;2.58;;;;;;;6.53;100.00;100373.31;5030150;28;20034;-82
2023/01/13 08:00:15;;;;;;;10.18;2.53;;;;;;;6.57;100.00;100380.69;5012396;28;20437;-81
2023/01/13 08:02:40;;;;;;;10.20;1.88;;;;;;;6.61;100.00;100380.34;5011880;28;20029;-81
2023/01/13 08:05:07;;;;;;;13.82;2.35;;;;;;;6.59;100.00;100376.03;5030002;28;20388;-81
2023/01/13 08:07:32;;;;;;;15.00;2.35;;;;;;;6.57;100.00;100377.22;5029923;28;20096;-81
2023/01/13 08:09:58;;;;;;;11.13;2.42;;;;;;;6.63;100.00;100383.63;5012097;28;20175;-82
2023/01/13 08:15:08;;;;;;;19.13;3.58;;;;;;;6.58;100.00;100382.38;5029834;28;20076;-81
2023/01/13 08:17:35;;;;;;;11.88;4.88;;;;;;;6.63;100.00;100386.28;5012358;28;20041;-81
2023/01/13 08:20:00;;;;;;;12.63;3.35;;;;;;;6.61;100.00;100381.19;5011921;28;20040;-81
2023/01/13 08:22:26;;;;;;;8.85;1.98;;;;;;;6.66;100.00;100404.47;5029659;28;20029;-81
2023/01/13 08:24:51;;;;;;;12.45;2.33;;;;;;;6.69;100.00;100404.94;5029632;28;20065;-81
2023/01/13 08:27:19;;;;;;;11.35;2.45;;;;;;;6.71;100.00;100407.41;5029673;28;20033;-81
2023/01/13 08:29:44;;;;;;;11.88;2.75;;;;;;;6.68;100.00;100403.31;5029482;28;20036;-81
2023/01/13 08:32:09;;;;;;;13.82;2.22;;;;;;;6.73;100.00;100402.72;5011964;28;20037;-82
2023/01/13 08:34:35;;;;;;;14.82;2.88;;;;;;;6.75;100.00;100406.84;5029292;28;20118;-81
2023/01/13 08:37:00;;;;;;;11.75;2.95;;;;;;;6.74;100.00;100401.75;5023694;28;20044;-82
2023/01/13 08:39:26;;;;;;;19.13;4.35;;;;;;;6.81;100.00;100410.59;5005672;28;20952;-83
2023/01/13 08:41:54;;;;;;;9.45;2.28;;;;;;;6.79;100.00;100409.97;5005419;28;20029;-82
2023/01/13 08:44:19;;;;;;;7.47;1.95;;;;;;;6.83;100.00;100402.47;5007574;28;20555;-83
2023/01/13 08:46:45;;;;;;;10.23;1.92;;;;;;;6.88;100.00;100416.00;5025375;28;20068;-85
2023/01/13 08:49:10;;;;;;;11.55;2.30;;;;;;;6.96;100.00;100419.34;5025180;28;20040;-84
2023/01/13 08:51:36;;;;;;;11.77;2.65;;;;;;;6.99;100.00;100403.09;5024117;28;20060;-85
2023/01/13 08:54:02;;;;;;;21.13;3.65;;;;;;;7.05;100.00;100413.97;5006159;28;20025;-86
2023/01/13 08:56:31;;;;;;;13.75;2.03;;;;;;;7.08;100.00;100413.63;5025543;28;20470;-85
2023/01/13 08:58:57;;;;;;;10.50;2.25;;;;;;;7.17;100.00;100420.44;5007487;28;20022;-81
2023/01/13 09:01:23;;;;;;;9.60;2.40;;;;;;;7.18;100.00;100412.31;5005348;28;20037;-81
2023/01/13 09:03:48;;;;;;;8.30;2.30;;;;;;;7.27;100.00;100415.69;5006797;28;20507;-80
2023/01/13 09:06:14;;;;;;;13.20;3.25;;;;;;;7.29;100.00;100420.81;5026048;28;20029;-79
2023/01/13 09:08:40;;;;;;;14.57;2.92;;;;;;;7.37;100.00;100404.78;5029776;28;20029;-80
2023/01/13 09:13:10;;;;;;;12.35;3.38;;;;;;;7.44;100.00;100418.94;5028672;28;20383;-80
2023/01/13 09:13:50;;;;;;;8.38;2.88;;;;;;;7.47;100.00;100414.09;5027710;28;20497;-77
2023/01/13 09:16:16;;;;;;;22.02;4.82;;;;;;;7.56;100.00;100414.78;5027760;28;20060;-76
2023/01/13 09:18:41;;;;;;;12.18;2.97;;;;;;;7.71;100.00;100401.47;5010393;28;20042;-77
2023/01/13 09:21:09;;;;;;;13.48;2.45;;;;;;;7.93;100.00;100407.59;5011390;28;20025;-78
2023/01/13 09:23:34;;;;;;;19.25;3.13;;;;;;;8.06;98.94;100414.88;5028243;28;20059;-78
2023/01/13 09:26:00;;;;;;;11.18;2.60;;;;;;;8.21;100.00;100420.09;5009106;28;20061;-77
2023/01/13 09:28:25;;;;;;;11.50;3.08;;;;;;;8.24;100.00;100420.53;5029840;28;20037;-77
2023/01/13 09:30:51;;;;;;;14.52;3.17;;;;;;;8.23;98.68;100418.91;5010497;28;20037;-78
2023/01/13 09:36:00;;;;;;;15.38;3.17;;;;;;;8.38;97.79;100452.53;5027616;28;20087;-78
2023/01/13 09:38:26;;;;;;;13.63;3.08;;;;;;;8.34;98.75;100431.66;5010046;28;20021;-78
2023/01/13 09:40:52;;;;;;;15.80;4.50;;;;;;;8.26;98.19;100466.34;5028268;28;20432;-78
2023/01/13 09:43:56;;;;;;;10.98;2.08;;;;;;;8.20;99.96;100456.50;5028759;28;20033;-76
2023/01/13 09:46:45;;;;;;;18.08;3.13;;;;;;;8.04;100.00;100456.72;5027983;28;20022;-83
2023/01/13 09:49:34;;;;;;;14.23;2.88;;;;;;;7.99;100.00;100472.41;5014828;28;20025;-82
2023/01/13 09:52:13;;;;;;;12.73;4.13;;;;;;;7.95;100.00;100469.31;5011031;28;20472;-87
2023/01/13 09:55:01;;;;;;;22.33;3.78;;;;;;;7.95;99.28;100481.78;5027122;28;20522;-81
2023/01/13 09:57:30;;;;;;;13.65;3.13;;;;;;;7.96;99.73;100476.25;5008145;28;20479;-81
2023/01/13 09:59:57;;;;;;;17.70;3.28;;;;;;;7.89;100.00;100475.38;5027482;28;20032;-76
2023/01/13 10:02:41;;;;;;;16.52;4.80;;;;;;;7.91;100.00;100494.59;5026311;28;20104;-76
2023/01/13 10:05:26;;;;;;;15.73;3.17;;;;;;;7.86;100.00;100497.81;5029163;28;20029;-81
2023/01/13 10:07:57;;;;;;;7.60;2.00;;;;;;;7.86;100.00;100497.00;5032243;28;20040;-78
2023/01/13 10:10:37;;;;;;;16.17;4.33;;;;;;;7.77;100.00;100495.47;5014471;28;20480;-78
2023/01/13 10:13:14;;;;;;;11.27;2.53;;;;;;;7.67;100.00;100480.63;5032159;28;20033;-79
2023/01/13 10:16:06;;;;;;;17.05;2.85;;;;;;;7.78;100.00;100494.44;5014105;28;20107;-78
2023/01/13 10:18:51;;;;;;;15.05;3.00;;;;;;;7.81;100.00;100489.59;5002521;28;20045;-78
2023/01/13 10:21:44;;;;;;;16.08;3.42;;;;;;;7.87;100.00;100488.03;5031964;28;20094;-78
2023/01/13 10:24:28;;;;;;;13.40;2.95;;;;;;;7.93;100.00;100497.06;5031834;28;20025;-79
2023/01/13 10:27:03;;;;;;;18.27;2.65;;;;;;;7.80;100.00;100493.25;5014193;28;20029;-84
2023/01/13 10:29:30;;;;;;;15.60;3.78;;;;;;;7.69;100.00;100509.66;5031785;28;20534;-85
2023/01/13 10:31:58;;;;;;;15.18;2.92;;;;;;;7.59;100.00;100496.66;5031763;28;20036;-84
2023/01/13 10:34:25;;;;;;;11.63;3.10;;;;;;;7.52;100.00;100508.22;5031848;28;20025;-78
2023/01/13 10:37:07;;;;;;;12.23;3.35;;;;;;;7.50;100.00;100513.72;5013458;28;20362;-80
2023/01/13 10:39:42;;;;;;;;;;;;;;;7.55;100.00;100510.53;5014410;28;20053;-79
2023/01/13 10:42:17;;;;;;;11.57;3.70;;;;;;;7.41;100.00;100522.78;5031649;28;19970;-78
2023/01/13 10:44:47;;;;;;;9.23;2.50;;;;;;;7.39;100.00;100522.16;5013766;28;20080;-79
2023/01/13 10:47:25;;;;;;;17.53;3.00;;;;;;;7.38;100.00;100539.06;5013769;28;20029;-79
2023/01/13 10:50:22;;;;;;;18.75;4.88;;;;;;;7.34;100.00;100533.31;5013428;28;20040;-78
2023/01/13 10:53:14;;;;;;;18.02;3.92;;;;;;;7.28;100.00;100527.91;4997063;28;20504;-78
2023/01/13 10:55:40;;;;;;;10.50;3.22;;;;;;;7.34;100.00;100540.44;5031187;28;20029;-79
2023/01/13 10:58:18;;;;;;;16.80;4.18;;;;;;;7.37;100.00;100548.84;5031303;28;20026;-78
2023/01/13 11:00:44;;;;;;;10.07;3.72;;;;;;;7.33;100.00;100530.81;5013265;28;20025;-78
2023/01/13 11:03:22;;;;;;;15.02;4.70;;;;;;;7.45;100.00;100542.63;5031176;28;20137;-78
2023/01/13 11:05:54;;;;;;;19.52;3.35;;;;;;;7.49;100.00;100533.28;5013343;28;20026;-78
2023/01/13 11:08:23;;;;;;;13.27;3.13;;;;;;;7.56;100.00;100544.81;5013103;28;20033;-78
2023/01/13 11:10:52;;;;;;;10.27;2.75;;;;;;;7.55;100.00;100556.44;5030936;28;20435;-78
2023/01/13 11:13:34;;;;;;;14.43;3.63;;;;;;;7.49;100.00;100537.78;5030971;28;20125;-78
2023/01/13 11:16:09;;;;;;;11.93;2.95;;;;;;;7.59;100.00;100549.75;5012846;28;20100;-77
2023/01/13 11:18:42;;;;;;;13.95;4.47;;;;;;;7.63;100.00;100553.69;5030789;28;20429;-78
2023/01/13 11:21:36;;;;;;;20.55;5.85;;;;;;;7.64;100.00;100543.91;5012734;28;20032;-78
2023/01/13 11:24:21;;;;;;;15.75;4.70;;;;;;;7.53;100.00;100547.84;5022438;28;20484;-78
2023/01/13 11:26:53;;;;;;;18.40;3.33;;;;;;;7.54;100.00;100561.94;5013072;28;20033;-79
2023/01/13 11:29:21;;;;;;;13.70;3.75;;;;;;;7.58;100.00;100557.91;5030559;28;20455;-78
2023/01/13 11:31:59;;;;;;;13.38;3.85;;;;;;;7.56;100.00;100549.31;5030512;28;20025;-79
2023/01/13 11:34:33;;;;;;;20.58;5.78;;;;;;;7.73;100.00;100556.06;5030581;28;20073;-79
2023/01/13 11:37:02;;;;;;;14.75;3.40;;;;;;;7.77;100.00;100551.22;5030519;28;20029;-79
2023/01/13 11:39:52;;;;;;;19.00;4.20;;;;;;;7.84;100.00;100552.94;5030486;28;20025;-78
2023/01/13 11:42:25;;;;;;;23.65;4.47;;;;;;;7.69;100.00;100560.09;5012763;28;20488;-78
2023/01/13 11:45:02;;;;;;;19.70;4.43;;;;;;;7.71;100.00;100579.31;5006011;28;20170;-80
2023/01/13 11:47:28;;;;;;;22.95;5.55;;;;;;;7.69;100.00;100579.50;5025392;28;20033;-77
2023/01/13 11:49:54;;;;;;;14.52;2.28;;;;;;;7.68;100.00;100564.59;5007008;28;20052;-78
2023/01/13 11:52:44;;;;;;;9.75;2.50;;;;;;;7.78;100.00;100577.59;4992133;28;20038;-77
2023/01/13 11:55:36;;;;;;;11.90;3.08;;;;;;;7.82;100.00;100572.72;5024383;28;20669;-78
2023/01/13 11:58:33;;;;;;;11.02;3.05;;;;;;;7.96;100.00;100594.94;5024339;28;20454;-77
2023/01/13 12:01:18;;;;;;;16.90;3.25;;;;;;;8.01;100.00;100595.19;5007140;28;20021;-77
2023/01/13 12:03:58;;;;;;;17.02;5.20;;;;;;;7.98;100.00;100585.78;5006560;28;20033;-77
2023/01/13 12:06:32;;;;;;;12.32;3.95;;;;;;;8.10;100.00;100594.91;5006875;28;20445;-78
2023/01/13 12:09:22;;;;;;;9.68;3.15;;;;;;;8.11;100.00;100603.69;5005331;28;20447;-76
2023/01/13 12:12:18;;;;;;;15.55;2.92;;;;;;;8.06;100.00;100595.47;5024631;28;20030;-77
2023/01/13 12:15:17;;;;;;;10.85;2.92;;;;;;;8.09;100.00;100603.06;5023668;28;20436;-77
2023/01/13 12:18:07;;;;;;;14.77;2.53;;;;;;;8.02;100.00;100604.84;5025058;28;20033;-79
2023/01/13 12:20:57;;;;;;;11.02;2.88;;;;;;;8.00;100.00;100620.94;5022503;28;20538;-78
2023/01/13 12:23:42;;;;;;;17.48;4.47;;;;;;;8.02;100.00;100613.63;5004797;28;20548;-77
2023/01/13 12:26:14;;;;;;;17.67;4.53;;;;;;;8.02;100.00;100615.44;5006277;28;20041;-77